createdAt,value
2019-02-12T00:04:06.339Z,19.40
2019-02-12T00:09:07.985Z,31.70
2019-02-12T00:14:09.979Z,33.87
2019-02-12T00:19:11.973Z,23.70
2019-02-12T00:24:13.570Z,25.50
2019-02-12T00:29:15.114Z,24.20
2019-02-12T00:34:16.698Z,19.70
2019-02-12T00:39:18.260Z,28.83
2019-02-12T00:44:19.788Z,22.60
2019-02-12T00:49:21.762Z,22.43
2019-02-12T00:54:24.189Z,24.73
2019-02-12T00:59:26.009Z,19.27
2019-02-12T01:04:27.957Z,22.63
2019-02-12T01:09:29.472Z,30.97
2019-02-12T01:14:31.463Z,17.03
2019-02-12T01:19:33.314Z,21.33
2019-02-12T01:24:35.264Z,20.23
2019-02-12T01:29:36.793Z,25.87
2019-02-12T01:34:38.337Z,23.10
2019-02-12T01:39:39.961Z,20.03
2019-02-12T01:44:41.857Z,21.23
2019-02-12T01:49:43.426Z,23.43
2019-02-12T01:54:45.032Z,22.27
2019-02-12T01:59:46.579Z,27.63
2019-02-12T02:04:48.141Z,24.93
2019-02-12T02:09:50.037Z,19.47
2019-02-12T02:14:51.730Z,19.97
2019-02-12T02:19:53.293Z,23.27
2019-02-12T02:24:54.887Z,18.57
2019-02-12T02:29:56.470Z,22.93
2019-02-12T02:34:58.009Z,22.83
2019-02-12T02:39:59.533Z,14.27
2019-02-12T02:45:01.095Z,22.87
2019-02-12T02:50:03.459Z,20.33
2019-02-12T02:55:05.211Z,17.80
2019-02-12T03:00:07.359Z,22.50
2019-02-12T03:05:09.279Z,20.40
2019-02-12T03:10:10.851Z,24.20
2019-02-12T03:15:12.425Z,18.70
2019-02-12T03:20:13.994Z,28.17
2019-02-12T03:25:15.535Z,24.27
2019-02-12T03:30:17.099Z,22.60
2019-02-12T03:35:18.698Z,14.00
2019-02-12T03:40:20.226Z,28.10
2019-02-12T03:45:21.805Z,19.17
2019-02-12T03:50:23.361Z,17.97
2019-02-12T03:55:24.907Z,21.20
2019-02-12T04:00:26.443Z,18.77
2019-02-12T04:05:28.019Z,15.97
2019-02-12T04:10:29.715Z,19.47
2019-02-12T04:15:31.295Z,25.97
2019-02-12T04:20:33.301Z,14.70
2019-02-12T04:25:35.555Z,21.87
2019-02-12T04:30:37.106Z,13.40
2019-02-12T04:35:39.046Z,19.60
2019-02-12T04:40:40.635Z,27.87
2019-02-12T04:45:42.160Z,20.53
2019-02-12T04:50:43.803Z,31.67
2019-02-12T04:55:45.437Z,24.97
2019-02-12T05:00:47.012Z,18.83
2019-02-12T05:05:48.559Z,20.67
2019-02-12T05:10:58.413Z,18.00
2019-02-12T05:15:59.969Z,22.07
2019-02-12T05:21:01.862Z,18.20
2019-02-12T05:26:03.425Z,22.27
2019-02-12T05:31:04.974Z,16.67
2019-02-12T05:36:06.579Z,18.23
2019-02-12T05:41:08.700Z,22.97
2019-02-12T05:46:10.291Z,25.13
2019-02-12T05:51:11.919Z,19.03
2019-02-12T05:56:13.480Z,31.43
2019-02-12T06:01:15.963Z,25.43
2019-02-12T06:06:17.917Z,22.00
2019-02-12T06:11:19.459Z,23.93
2019-02-12T06:16:21.124Z,27.27
2019-02-12T06:21:22.651Z,24.87
2019-02-12T06:26:24.225Z,25.23
2019-02-12T06:31:26.107Z,20.40
2019-02-12T06:36:27.708Z,21.40
2019-02-12T06:41:29.316Z,22.00
2019-02-12T06:46:31.402Z,30.63
2019-02-12T06:51:32.917Z,25.90
2019-02-12T06:56:34.487Z,16.30
2019-02-12T07:01:35.985Z,27.93
2019-02-12T07:07:29.342Z,29.53
2019-02-12T07:12:56.751Z,21.17
2019-02-12T07:18:29.673Z,20.95
2019-02-12T07:24:07.923Z,29.93
2019-02-12T07:29:57.009Z,18.77
2019-02-12T07:35:32.473Z,26.50
2019-02-12T07:41:25.115Z,23.90
2019-02-12T07:46:51.867Z,27.27
2019-02-12T07:52:19.415Z,23.67
2019-02-12T07:58:01.797Z,25.37
2019-02-12T08:03:32.920Z,33.20
2019-02-12T08:08:49.975Z,28.07
2019-02-12T08:14:15.016Z,25.43
2019-02-12T08:19:39.758Z,27.90
2019-02-12T08:25:20.437Z,30.30
2019-02-12T08:30:49.953Z,31.23
2019-02-12T08:36:14.641Z,25.53
2019-02-12T08:41:56.842Z,34.33
2019-02-12T08:47:47.438Z,28.33
2019-02-12T08:53:31.667Z,33.40
2019-02-12T08:59:17.393Z,31.13
2019-02-12T09:05:01.312Z,29.10
2019-02-12T09:10:44.669Z,24.33
2019-02-12T09:16:18.594Z,29.53
2019-02-12T09:22:23.218Z,31.67
2019-02-12T09:28:08.846Z,29.10
2019-02-12T09:33:45.117Z,31.23
2019-02-12T09:39:30.662Z,28.03
2019-02-12T09:45:35.539Z,32.70
2019-02-12T09:51:07.079Z,31.40
2019-02-12T09:56:23.270Z,32.40
2019-02-12T10:01:52.835Z,28.20
2019-02-12T10:07:20.183Z,34.33
2019-02-12T10:12:49.714Z,28.40
2019-02-12T10:18:54.369Z,34.53
2019-02-12T10:24:34.790Z,31.47
2019-02-12T10:30:11.214Z,25.83
2019-02-12T10:35:13.070Z,28.57
2019-02-12T10:40:14.633Z,31.57
2019-02-12T10:45:16.206Z,31.60
2019-02-12T10:50:17.727Z,31.13
2019-02-12T10:55:19.693Z,30.13
2019-02-12T11:00:21.999Z,29.17
2019-02-12T11:05:23.564Z,32.57
2019-02-12T11:10:25.736Z,38.10
2019-02-12T11:15:27.308Z,29.10
2019-02-12T11:20:28.854Z,24.53
2019-02-12T11:25:30.569Z,27.37
2019-02-12T11:30:32.715Z,23.47
2019-02-12T11:35:34.388Z,34.03
2019-02-12T11:40:36.467Z,28.90
2019-02-12T11:45:38.058Z,25.97
2019-02-12T11:50:39.867Z,25.60
2019-02-12T11:55:41.552Z,30.57
2019-02-12T12:00:43.481Z,22.83
2019-02-12T12:05:45.049Z,22.07
2019-02-12T12:10:46.887Z,19.80
2019-02-12T12:15:48.441Z,20.67
2019-02-12T12:20:52.867Z,26.07
2019-02-12T12:25:54.442Z,25.77
2019-02-12T12:30:56.113Z,21.57
2019-02-12T12:35:58.234Z,22.70
2019-02-12T12:40:59.810Z,20.50
2019-02-12T12:46:02.417Z,22.23
2019-02-12T12:51:04.056Z,19.47
2019-02-12T12:56:05.610Z,19.37
2019-02-12T13:01:07.545Z,17.17
2019-02-12T13:06:09.113Z,17.23
2019-02-12T13:11:10.721Z,19.87
2019-02-12T13:16:13.141Z,16.53
2019-02-12T13:21:14.844Z,14.67
2019-02-12T13:26:16.625Z,16.93
2019-02-12T13:31:18.316Z,16.23
2019-02-12T13:36:19.853Z,13.20
2019-02-12T13:41:21.426Z,15.37
2019-02-12T13:46:23.415Z,16.03
2019-02-12T13:51:25.048Z,12.07
2019-02-12T13:56:26.669Z,12.47
2019-02-12T14:01:28.175Z,15.20
2019-02-12T14:06:33.176Z,15.70
2019-02-12T14:11:35.259Z,21.87
2019-02-12T14:16:36.872Z,15.60
2019-02-12T14:21:38.466Z,16.23
2019-02-12T14:26:40.061Z,14.37
2019-02-12T14:31:41.967Z,19.60
2019-02-12T14:36:43.603Z,15.67
2019-02-12T14:41:45.219Z,17.17
2019-02-12T14:46:46.817Z,17.90
2019-02-12T14:51:48.634Z,16.47
2019-02-12T14:56:50.334Z,20.27
2019-02-12T15:01:52.477Z,16.70
2019-02-12T15:06:54.066Z,16.23
2019-02-12T15:12:04.730Z,16.33
2019-02-12T15:17:06.347Z,16.93
2019-02-12T15:22:08.935Z,19.93
2019-02-12T15:27:10.609Z,20.00
2019-02-12T15:32:12.379Z,23.57
2019-02-12T15:37:14.114Z,19.13
2019-02-12T15:42:15.784Z,22.83
2019-02-12T15:47:17.479Z,16.90
2019-02-12T15:52:19.174Z,19.70
2019-02-12T15:57:22.564Z,18.13
2019-02-12T16:02:24.574Z,17.60
2019-02-12T16:07:26.169Z,17.77
2019-02-12T16:12:28.555Z,20.30
2019-02-12T16:17:30.337Z,20.27
2019-02-12T16:22:31.888Z,17.80
2019-02-12T16:27:33.504Z,19.27
2019-02-12T16:32:35.218Z,21.60
2019-02-12T16:37:37.238Z,18.20
2019-02-12T16:42:38.966Z,15.70
2019-02-12T16:47:40.682Z,16.67
2019-02-12T16:52:44.403Z,18.03
2019-02-12T16:57:46.033Z,19.73
2019-02-12T17:02:47.614Z,20.02
2019-02-12T17:07:49.871Z,20.63
2019-02-12T17:12:51.403Z,19.33
2019-02-12T17:17:54.223Z,21.00
2019-02-12T17:22:55.953Z,18.30
2019-02-12T17:27:57.677Z,23.27
2019-02-12T17:33:04.625Z,22.27
2019-02-12T17:38:06.206Z,23.13
2019-02-12T17:43:07.790Z,23.00
2019-02-12T17:48:09.427Z,22.30
2019-02-12T17:53:11.069Z,27.60
2019-02-12T17:58:12.637Z,24.87
2019-02-12T18:03:15.298Z,27.77
2019-02-12T18:08:19.295Z,29.43
2019-02-12T18:13:21.052Z,27.47
2019-02-12T18:18:23.310Z,23.70
2019-02-12T18:23:26.010Z,28.50
2019-02-12T18:28:35.367Z,31.33
2019-02-12T18:33:37.219Z,28.37
2019-02-12T18:38:39.892Z,33.07
2019-02-12T18:43:41.442Z,29.90
2019-02-12T18:48:43.027Z,32.60
2019-02-12T18:53:44.632Z,30.13
2019-02-12T18:58:46.244Z,29.17
2019-02-12T19:03:48.874Z,30.53
2019-02-12T19:08:50.818Z,28.03
2019-02-12T19:13:52.471Z,28.67
2019-02-12T19:18:54.280Z,31.77
2019-02-12T19:23:55.926Z,30.47
2019-02-12T19:28:57.612Z,34.80
2019-02-12T19:33:59.848Z,31.60
2019-02-12T19:39:01.907Z,36.20
2019-02-12T19:44:03.755Z,34.27
2019-02-12T19:49:05.326Z,35.27
2019-02-12T19:54:07.103Z,39.60
2019-02-12T19:59:10.215Z,37.13
2019-02-12T20:04:13.741Z,38.00
2019-02-12T20:09:16.038Z,35.27
2019-02-12T20:14:17.913Z,37.37
2019-02-12T20:19:19.631Z,34.40
2019-02-12T20:24:22.827Z,38.30
2019-02-12T20:29:24.523Z,41.97
2019-02-12T20:34:26.370Z,39.73
2019-02-12T20:39:29.668Z,39.93
2019-02-12T20:44:31.772Z,35.40
2019-02-12T20:49:33.583Z,38.13
2019-02-12T20:54:35.376Z,38.70
2019-02-12T20:59:37.014Z,37.43
2019-02-12T21:04:38.711Z,34.90
2019-02-12T21:09:40.847Z,37.63
2019-02-12T21:14:42.484Z,32.50
2019-02-12T21:19:44.154Z,31.33
2019-02-12T21:24:46.912Z,33.47
2019-02-12T21:29:48.572Z,31.53
2019-02-12T21:34:50.428Z,35.00
2019-02-12T21:39:52.037Z,30.57
2019-02-12T21:44:53.646Z,34.27
2019-02-12T21:49:55.268Z,29.87
2019-02-12T21:54:56.864Z,35.50
2019-02-12T21:59:58.517Z,28.67
2019-02-12T22:05:00.451Z,30.00
2019-02-12T22:10:02.816Z,32.77
2019-02-12T22:15:04.712Z,28.13
2019-02-12T22:20:07.620Z,32.27
2019-02-12T22:25:09.487Z,31.70
2019-02-12T22:30:13.498Z,36.37
2019-02-12T22:35:15.071Z,30.17
2019-02-12T22:40:16.669Z,29.83
2019-02-12T22:45:18.300Z,28.20
2019-02-12T22:50:19.885Z,29.70
2019-02-12T22:55:21.504Z,37.70
2019-02-12T23:00:32.349Z,29.17
2019-02-12T23:05:34.378Z,35.80
2019-02-12T23:10:36.275Z,27.53
2019-02-12T23:15:37.926Z,32.07
2019-02-12T23:20:39.498Z,30.30
2019-02-12T23:25:41.581Z,39.60
2019-02-12T23:30:43.170Z,33.10
2019-02-12T23:35:45.183Z,31.03
2019-02-12T23:40:46.741Z,33.67
2019-02-12T23:45:48.314Z,35.80
2019-02-12T23:50:50.362Z,37.83
2019-02-12T23:55:51.902Z,32.40
